sensor_id;sensor_type;location;lat;lon;timestamp;pressure;altitude;pressure_sealevel;temperature;humidity
58690;BME280;44470;53.206;-6.106;2023-02-18T00:01:45;101575.97;;;18.94;61.26
58690;BME280;44470;53.206;-6.106;2023-02-18T00:04:10;101599.97;;;18.94;61.08
58690;BME280;44470;53.206;-6.106;2023-02-18T00:06:36;101607.94;;;18.92;61.14
58690;BME280;44470;53.206;-6.106;2023-02-18T00:09:03;101612.41;;;18.93;61.14
58690;BME280;44470;53.206;-6.106;2023-02-18T00:11:32;101611.53;;;18.93;61.09
58690;BME280;44470;53.206;-6.106;2023-02-18T00:13:59;101593.72;;;18.93;61.13
58690;BME280;44470;53.206;-6.106;2023-02-18T00:16:27;101590.16;;;18.91;61.01
58690;BME280;44470;53.206;-6.106;2023-02-18T00:18:57;101597.28;;;18.92;60.97
58690;BME280;44470;53.206;-6.106;2023-02-18T00:21:23;101591.94;;;18.92;61.14
58690;BME280;44470;53.206;-6.106;2023-02-18T00:23:49;101584.84;;;18.91;61.20
58690;BME280;44470;53.206;-6.106;2023-02-18T00:26:16;101580.41;;;18.92;61.29
58690;BME280;44470;53.206;-6.106;2023-02-18T00:28:42;101568.84;;;18.91;61.07
58690;BME280;44470;53.206;-6.106;2023-02-18T00:31:20;101559.94;;;18.92;61.09
58690;BME280;44470;53.206;-6.106;2023-02-18T00:33:45;101575.94;;;18.89;61.20
58690;BME280;44470;53.206;-6.106;2023-02-18T00:36:13;101568.84;;;18.91;60.91
58690;BME280;44470;53.206;-6.106;2023-02-18T00:38:46;101561.75;;;18.92;61.16
58690;BME280;44470;53.206;-6.106;2023-02-18T00:41:12;101553.72;;;18.92;61.10
58690;BME280;44470;53.206;-6.106;2023-02-18T00:43:38;101551.06;;;18.90;61.10
58690;BME280;44470;53.206;-6.106;2023-02-18T00:46:04;101527.94;;;18.86;60.76
58690;BME280;44470;53.206;-6.106;2023-02-18T00:48:31;101532.41;;;18.92;61.07
58690;BME280;44470;53.206;-6.106;2023-02-18T00:50:57;101551.06;;;18.90;60.93
58690;BME280;44470;53.206;-6.106;2023-02-18T00:53:22;101511.06;;;18.88;60.93
58690;BME280;44470;53.206;-6.106;2023-02-18T00:55:48;101534.16;;;18.91;61.08
58690;BME280;44470;53.206;-6.106;2023-02-18T00:58:15;101543.97;;;18.91;61.06
58690;BME280;44470;53.206;-6.106;2023-02-18T01:00:41;101527.94;;;18.89;61.10
58690;BME280;44470;53.206;-6.106;2023-02-18T01:03:06;101521.75;;;18.85;61.03
58690;BME280;44470;53.206;-6.106;2023-02-18T01:05:32;101525.28;;;18.87;60.96
58690;BME280;44470;53.206;-6.106;2023-02-18T01:07:58;101534.19;;;18.90;60.71
58690;BME280;44470;53.206;-6.106;2023-02-18T01:10:24;101519.06;;;18.87;60.84
58690;BME280;44470;53.206;-6.106;2023-02-18T01:12:49;101524.41;;;18.87;60.87
58690;BME280;44470;53.206;-6.106;2023-02-18T01:15:15;101538.63;;;18.91;60.91
58690;BME280;44470;53.206;-6.106;2023-02-18T01:17:41;101528.84;;;18.88;60.94
58690;BME280;44470;53.206;-6.106;2023-02-18T01:20:08;101523.50;;;18.90;61.01
58690;BME280;44470;53.206;-6.106;2023-02-18T01:22:34;101522.59;;;18.89;60.81
58690;BME280;44470;53.206;-6.106;2023-02-18T01:25:00;101510.19;;;18.83;60.78
58690;BME280;44470;53.206;-6.106;2023-02-18T01:27:25;101505.72;;;18.88;60.89
58690;BME280;44470;53.206;-6.106;2023-02-18T01:29:51;101502.16;;;18.88;60.94
58690;BME280;44470;53.206;-6.106;2023-02-18T01:32:16;101509.28;;;18.87;60.90
58690;BME280;44470;53.206;-6.106;2023-02-18T01:34:42;101502.16;;;18.85;60.94
58690;BME280;44470;53.206;-6.106;2023-02-18T01:37:07;101507.50;;;18.88;60.73
58690;BME280;44470;53.206;-6.106;2023-02-18T01:39:34;101520.84;;;18.88;60.89
58690;BME280;44470;53.206;-6.106;2023-02-18T01:41:59;101491.50;;;18.88;60.70
58690;BME280;44470;53.206;-6.106;2023-02-18T01:44:26;101501.28;;;18.87;60.93
58690;BME280;44470;53.206;-6.106;2023-02-18T01:46:52;101487.06;;;18.84;60.76
58690;BME280;44470;53.206;-6.106;2023-02-18T01:49:31;101485.28;;;18.86;60.81
58690;BME280;44470;53.206;-6.106;2023-02-18T01:52:02;101488.81;;;18.88;61.03
58690;BME280;44470;53.206;-6.106;2023-02-18T01:54:35;101487.06;;;18.87;60.68
58690;BME280;44470;53.206;-6.106;2023-02-18T01:57:10;101503.97;;;18.87;60.82
58690;BME280;44470;53.206;-6.106;2023-02-18T02:02:07;101511.94;;;18.86;60.91
58690;BME280;44470;53.206;-6.106;2023-02-18T02:04:34;101490.63;;;18.80;61.18
58690;BME280;44470;53.206;-6.106;2023-02-18T02:07:01;101483.50;;;18.82;60.89
58690;BME280;44470;53.206;-6.106;2023-02-18T02:09:28;101487.94;;;18.86;60.98
58690;BME280;44470;53.206;-6.106;2023-02-18T02:17:13;101479.06;;;18.84;60.96
58690;BME280;44470;53.206;-6.106;2023-02-18T02:36:39;101472.84;;;18.83;60.98
58690;BME280;44470;53.206;-6.106;2023-02-18T02:39:20;101474.63;;;18.81;60.93
58690;BME280;44470;53.206;-6.106;2023-02-18T02:41:53;101470.16;;;18.85;60.98
58690;BME280;44470;53.206;-6.106;2023-02-18T02:44:31;101470.19;;;18.83;61.02
58690;BME280;44470;53.206;-6.106;2023-02-18T02:47:14;101460.41;;;18.78;60.90
58690;BME280;44470;53.206;-6.106;2023-02-18T02:50:20;101469.28;;;18.83;60.84
58690;BME280;44470;53.206;-6.106;2023-02-18T02:52:56;101455.94;;;18.83;60.91
58690;BME280;44470;53.206;-6.106;2023-02-18T02:55:24;101437.28;;;18.81;60.89
58690;BME280;44470;53.206;-6.106;2023-02-18T02:57:54;101447.94;;;18.83;60.63
58690;BME280;44470;53.206;-6.106;2023-02-18T03:03:28;101454.19;;;18.82;60.66
58690;BME280;44470;53.206;-6.106;2023-02-18T03:06:05;101467.50;;;18.82;60.88
58690;BME280;44470;53.206;-6.106;2023-02-18T03:11:24;101487.94;;;18.81;60.87
58690;BME280;44470;53.206;-6.106;2023-02-18T03:19:10;101462.19;;;18.82;60.57
58690;BME280;44470;53.206;-6.106;2023-02-18T03:21:47;101451.53;;;18.79;60.58
58690;BME280;44470;53.206;-6.106;2023-02-18T03:24:26;101471.06;;;18.81;60.70
58690;BME280;44470;53.206;-6.106;2023-02-18T03:27:17;101463.97;;;18.80;60.84
58690;BME280;44470;53.206;-6.106;2023-02-18T03:29:49;101467.53;;;18.79;60.77
58690;BME280;44470;53.206;-6.106;2023-02-18T03:32:20;101452.41;;;18.81;60.47
58690;BME280;44470;53.206;-6.106;2023-02-18T03:34:50;101470.16;;;18.80;60.54
58690;BME280;44470;53.206;-6.106;2023-02-18T03:37:17;101473.75;;;18.78;60.87
58690;BME280;44470;53.206;-6.106;2023-02-18T03:39:50;101501.31;;;18.80;60.70
58690;BME280;44470;53.206;-6.106;2023-02-18T03:42:17;101470.19;;;18.79;60.76
58690;BME280;44470;53.206;-6.106;2023-02-18T03:44:43;101470.16;;;18.80;60.57
58690;BME280;44470;53.206;-6.106;2023-02-18T03:47:10;101475.50;;;18.80;60.43
58690;BME280;44470;53.206;-6.106;2023-02-18T03:49:36;101487.97;;;18.80;60.37
58690;BME280;44470;53.206;-6.106;2023-02-18T03:52:02;101462.19;;;18.79;60.46
58690;BME280;44470;53.206;-6.106;2023-02-18T03:54:27;101487.06;;;18.81;60.33
58690;BME280;44470;53.206;-6.106;2023-02-18T03:56:53;101482.63;;;18.80;60.33
58690;BME280;44470;53.206;-6.106;2023-02-18T03:59:19;101495.97;;;18.80;60.48
58690;BME280;44470;53.206;-6.106;2023-02-18T04:01:44;101490.63;;;18.80;60.50
58690;BME280;44470;53.206;-6.106;2023-02-18T04:04:10;101499.53;;;18.79;60.30
58690;BME280;44470;53.206;-6.106;2023-02-18T04:06:35;101503.97;;;18.78;60.63
58690;BME280;44470;53.206;-6.106;2023-02-18T04:09:01;101498.66;;;18.73;60.46
58690;BME280;44470;53.206;-6.106;2023-02-18T04:11:36;101503.09;;;18.78;60.38
58690;BME280;44470;53.206;-6.106;2023-02-18T04:14:02;101513.75;;;18.78;60.20
58690;BME280;44470;53.206;-6.106;2023-02-18T04:16:28;101520.88;;;18.76;60.15
58690;BME280;44470;53.206;-6.106;2023-02-18T04:18:53;101529.75;;;18.78;60.25
58690;BME280;44470;53.206;-6.106;2023-02-18T04:21:19;101544.84;;;18.77;59.95
58690;BME280;44470;53.206;-6.106;2023-02-18T04:23:44;101542.22;;;18.72;60.12
58690;BME280;44470;53.206;-6.106;2023-02-18T04:26:10;101528.88;;;18.76;60.14
58690;BME280;44470;53.206;-6.106;2023-02-18T04:28:35;101543.97;;;18.72;60.29
58690;BME280;44470;53.206;-6.106;2023-02-18T04:31:01;101533.31;;;18.77;60.38
58690;BME280;44470;53.206;-6.106;2023-02-18T04:33:26;101542.22;;;18.72;60.33
58690;BME280;44470;53.206;-6.106;2023-02-18T04:35:52;101549.31;;;18.77;60.23
58690;BME280;44470;53.206;-6.106;2023-02-18T04:38:17;101552.88;;;18.72;60.17
58690;BME280;44470;53.206;-6.106;2023-02-18T04:40:42;101559.06;;;18.76;60.21
58690;BME280;44470;53.206;-6.106;2023-02-18T04:43:08;101568.00;;;18.70;60.40
58690;BME280;44470;53.206;-6.106;2023-02-18T04:45:34;101561.75;;;18.74;60.02
58690;BME280;44470;53.206;-6.106;2023-02-18T04:47:59;101556.44;;;18.70;60.16
58690;BME280;44470;53.206;-6.106;2023-02-18T04:50:25;101563.53;;;18.76;60.07
58690;BME280;44470;53.206;-6.106;2023-02-18T04:52:50;101573.31;;;18.75;60.34
58690;BME280;44470;53.206;-6.106;2023-02-18T04:55:16;101575.09;;;18.74;60.02
58690;BME280;44470;53.206;-6.106;2023-02-18T04:57:41;101573.31;;;18.69;60.19
58690;BME280;44470;53.206;-6.106;2023-02-18T05:00:10;101584.00;;;18.73;60.03
58690;BME280;44470;53.206;-6.106;2023-02-18T05:02:37;101592.84;;;18.74;60.32
58690;BME280;44470;53.206;-6.106;2023-02-18T05:05:03;101590.22;;;18.72;60.34
58690;BME280;44470;53.206;-6.106;2023-02-18T05:07:28;101581.31;;;18.70;59.99
58690;BME280;44470;53.206;-6.106;2023-02-18T05:09:54;101587.53;;;18.74;60.39
58690;BME280;44470;53.206;-6.106;2023-02-18T05:12:19;101598.22;;;18.72;60.27
58690;BME280;44470;53.206;-6.106;2023-02-18T05:14:45;101592.00;;;18.73;60.49
58690;BME280;44470;53.206;-6.106;2023-02-18T05:17:10;101600.88;;;18.72;59.97
58690;BME280;44470;53.206;-6.106;2023-02-18T05:19:36;101618.66;;;18.70;60.25
58690;BME280;44470;53.206;-6.106;2023-02-18T05:22:01;101624.88;;;18.72;60.35
58690;BME280;44470;53.206;-6.106;2023-02-18T05:24:26;101617.75;;;18.67;60.32
58690;BME280;44470;53.206;-6.106;2023-02-18T05:26:52;101623.97;;;18.72;59.96
58690;BME280;44470;53.206;-6.106;2023-02-18T05:29:17;101638.22;;;18.72;60.20
58690;BME280;44470;53.206;-6.106;2023-02-18T05:31:43;101632.88;;;18.72;60.35
58690;BME280;44470;53.206;-6.106;2023-02-18T05:34:08;101626.66;;;18.72;60.30
58690;BME280;44470;53.206;-6.106;2023-02-18T05:36:34;101632.00;;;18.70;59.92
58690;BME280;44470;53.206;-6.106;2023-02-18T05:39:00;101630.19;;;18.71;60.10
58690;BME280;44470;53.206;-6.106;2023-02-18T05:41:25;101627.53;;;18.71;60.22
58690;BME280;44470;53.206;-6.106;2023-02-18T05:43:51;101629.31;;;18.70;59.68
58690;BME280;44470;53.206;-6.106;2023-02-18T05:46:35;101619.53;;;18.65;59.96
58690;BME280;44470;53.206;-6.106;2023-02-18T05:49:01;101619.56;;;18.69;60.19
58690;BME280;44470;53.206;-6.106;2023-02-18T05:51:26;101638.22;;;18.69;60.22
58690;BME280;44470;53.206;-6.106;2023-02-18T05:53:52;101618.66;;;18.70;60.21
58690;BME280;44470;53.206;-6.106;2023-02-18T05:56:17;101620.41;;;18.70;60.20
58690;BME280;44470;53.206;-6.106;2023-02-18T05:58:43;101623.13;;;18.65;59.94
58690;BME280;44470;53.206;-6.106;2023-02-18T06:01:08;101641.75;;;18.70;60.04
58690;BME280;44470;53.206;-6.106;2023-02-18T06:03:34;101642.66;;;18.69;60.05
58690;BME280;44470;53.206;-6.106;2023-02-18T06:05:59;101650.66;;;18.69;59.79
58690;BME280;44470;53.206;-6.106;2023-02-18T06:08:25;101649.75;;;18.70;60.07
58690;BME280;44470;53.206;-6.106;2023-02-18T06:10:50;101643.56;;;18.69;59.86
58690;BME280;44470;53.206;-6.106;2023-02-18T06:13:16;101664.88;;;18.69;59.99
58690;BME280;44470;53.206;-6.106;2023-02-18T06:15:42;101653.31;;;18.69;59.76
58690;BME280;44470;53.206;-6.106;2023-02-18T06:18:07;101653.31;;;18.69;59.89
58690;BME280;44470;53.206;-6.106;2023-02-18T06:20:33;101656.88;;;18.68;60.15
58690;BME280;44470;53.206;-6.106;2023-02-18T06:22:58;101665.75;;;18.70;59.74
58690;BME280;44470;53.206;-6.106;2023-02-18T06:25:24;101654.22;;;18.69;59.96
58690;BME280;44470;53.206;-6.106;2023-02-18T06:27:49;101673.78;;;18.68;60.08
58690;BME280;44470;53.206;-6.106;2023-02-18T06:30:16;101666.66;;;18.69;59.94
58690;BME280;44470;53.206;-6.106;2023-02-18T06:32:41;101670.19;;;18.68;60.02
58690;BME280;44470;53.206;-6.106;2023-02-18T06:35:07;101662.19;;;18.68;60.26
58690;BME280;44470;53.206;-6.106;2023-02-18T06:37:33;101671.09;;;18.68;59.89
58690;BME280;44470;53.206;-6.106;2023-02-18T06:39:58;101655.09;;;18.68;60.07
58690;BME280;44470;53.206;-6.106;2023-02-18T06:42:24;101649.75;;;18.64;59.86
58690;BME280;44470;53.206;-6.106;2023-02-18T06:44:49;101671.09;;;18.67;59.93
58690;BME280;44470;53.206;-6.106;2023-02-18T06:47:15;101661.31;;;18.67;60.00
58690;BME280;44470;53.206;-6.106;2023-02-18T06:49:40;101669.31;;;18.69;59.84
58690;BME280;44470;53.206;-6.106;2023-02-18T06:52:06;101673.78;;;18.68;59.85
58690;BME280;44470;53.206;-6.106;2023-02-18T06:54:32;101681.75;;;18.67;60.04
58690;BME280;44470;53.206;-6.106;2023-02-18T06:56:58;101682.63;;;18.69;59.83
58690;BME280;44470;53.206;-6.106;2023-02-18T06:59:24;101691.53;;;18.69;59.85
58690;BME280;44470;53.206;-6.106;2023-02-18T07:01:49;101689.78;;;18.65;59.98
58690;BME280;44470;53.206;-6.106;2023-02-18T07:04:15;101693.31;;;18.69;59.97
58690;BME280;44470;53.206;-6.106;2023-02-18T07:06:41;101696.88;;;18.66;60.01
58690;BME280;44470;53.206;-6.106;2023-02-18T07:09:06;101701.31;;;18.67;60.14
58690;BME280;44470;53.206;-6.106;2023-02-18T07:11:32;101703.09;;;18.70;60.23
58690;BME280;44470;53.206;-6.106;2023-02-18T07:13:57;101716.44;;;18.68;59.79
58690;BME280;44470;53.206;-6.106;2023-02-18T07:16:23;101711.09;;;18.68;60.10
58690;BME280;44470;53.206;-6.106;2023-02-18T07:18:48;101713.78;;;18.68;60.08
58690;BME280;44470;53.206;-6.106;2023-02-18T07:21:13;101708.41;;;18.67;59.91
58690;BME280;44470;53.206;-6.106;2023-02-18T07:23:39;101713.78;;;18.68;60.29
58690;BME280;44470;53.206;-6.106;2023-02-18T07:26:10;101720.00;;;18.70;60.20
58690;BME280;44470;53.206;-6.106;2023-02-18T07:28:36;101720.88;;;18.69;60.21
58690;BME280;44470;53.206;-6.106;2023-02-18T07:31:02;101740.44;;;18.71;60.22
58690;BME280;44470;53.206;-6.106;2023-02-18T07:33:28;101736.00;;;18.70;60.00
58690;BME280;44470;53.206;-6.106;2023-02-18T07:35:55;101743.09;;;18.70;60.03
58690;BME280;44470;53.206;-6.106;2023-02-18T07:38:22;101714.66;;;18.70;60.46
58690;BME280;44470;53.206;-6.106;2023-02-18T07:40:48;101731.53;;;18.66;60.26
58690;BME280;44470;53.206;-6.106;2023-02-18T07:43:14;101752.88;;;18.71;59.98
58690;BME280;44470;53.206;-6.106;2023-02-18T07:45:39;101721.75;;;18.62;60.06
58690;BME280;44470;53.206;-6.106;2023-02-18T07:48:05;101740.41;;;18.70;60.27
58690;BME280;44470;53.206;-6.106;2023-02-18T07:50:30;101751.97;;;18.61;60.11
58690;BME280;44470;53.206;-6.106;2023-02-18T07:53:03;101767.09;;;18.71;60.27
58690;BME280;44470;53.206;-6.106;2023-02-18T07:55:30;101751.09;;;18.71;60.19
58690;BME280;44470;53.206;-6.106;2023-02-18T07:58:20;101742.22;;;18.63;60.55
58690;BME280;44470;53.206;-6.106;2023-02-18T08:00:46;101759.97;;;18.72;60.06
58690;BME280;44470;53.206;-6.106;2023-02-18T08:03:17;101769.78;;;18.71;60.17
58690;BME280;44470;53.206;-6.106;2023-02-18T08:05:43;101764.44;;;18.73;60.20
58690;BME280;44470;53.206;-6.106;2023-02-18T08:08:12;101760.88;;;18.72;60.05
58690;BME280;44470;53.206;-6.106;2023-02-18T08:10:38;101766.22;;;18.72;60.27
58690;BME280;44470;53.206;-6.106;2023-02-18T08:13:04;101772.41;;;18.73;60.23
58690;BME280;44470;53.206;-6.106;2023-02-18T08:15:29;101775.97;;;18.72;60.28
58690;BME280;44470;53.206;-6.106;2023-02-18T08:17:55;101787.56;;;18.76;60.10
58690;BME280;44470;53.206;-6.106;2023-02-18T08:20:20;101790.22;;;18.72;60.28
58690;BME280;44470;53.206;-6.106;2023-02-18T08:22:46;101775.09;;;18.71;59.92
58690;BME280;44470;53.206;-6.106;2023-02-18T08:25:11;101787.56;;;18.72;59.88
58690;BME280;44470;53.206;-6.106;2023-02-18T08:27:37;101778.66;;;18.70;60.26
58690;BME280;44470;53.206;-6.106;2023-02-18T08:30:02;101788.44;;;18.74;60.18
58690;BME280;44470;53.206;-6.106;2023-02-18T08:32:28;101798.22;;;18.76;60.07
58690;BME280;44470;53.206;-6.106;2023-02-18T08:34:54;101807.97;;;18.75;60.07
58690;BME280;44470;53.206;-6.106;2023-02-18T08:37:19;101798.22;;;18.76;60.07
58690;BME280;44470;53.206;-6.106;2023-02-18T08:39:45;101788.44;;;18.74;60.34
58690;BME280;44470;53.206;-6.106;2023-02-18T08:42:10;101788.44;;;18.73;60.16
58690;BME280;44470;53.206;-6.106;2023-02-18T08:44:36;101789.31;;;18.75;60.10
58690;BME280;44470;53.206;-6.106;2023-02-18T08:47:02;101791.97;;;18.75;60.07
58690;BME280;44470;53.206;-6.106;2023-02-18T08:49:27;101792.88;;;18.76;60.04
58690;BME280;44470;53.206;-6.106;2023-02-18T08:51:53;101803.56;;;18.76;60.33
58690;BME280;44470;53.206;-6.106;2023-02-18T08:54:19;101799.09;;;18.71;59.89
58690;BME280;44470;53.206;-6.106;2023-02-18T08:56:44;101805.31;;;18.78;60.23
58690;BME280;44470;53.206;-6.106;2023-02-18T08:59:10;101806.22;;;18.76;60.37
58690;BME280;44470;53.206;-6.106;2023-02-18T09:01:35;101808.00;;;18.78;59.93
58690;BME280;44470;53.206;-6.106;2023-02-18T09:04:01;101807.09;;;18.74;60.04
58690;BME280;44470;53.206;-6.106;2023-02-18T09:06:26;101812.47;;;18.81;60.26
58690;BME280;44470;53.206;-6.106;2023-02-18T09:08:52;101827.56;;;18.80;59.90
58690;BME280;44470;53.206;-6.106;2023-02-18T09:11:18;101814.22;;;18.77;60.48
58690;BME280;44470;53.206;-6.106;2023-02-18T09:13:44;101844.47;;;18.81;60.18
58690;BME280;44470;53.206;-6.106;2023-02-18T09:16:14;101837.34;;;18.80;60.17
58690;BME280;44470;53.206;-6.106;2023-02-18T09:18:43;101829.34;;;18.80;60.26
58690;BME280;44470;53.206;-6.106;2023-02-18T09:21:11;101836.47;;;18.81;60.61
58690;BME280;44470;53.206;-6.106;2023-02-18T09:23:37;101848.91;;;18.82;60.57
58690;BME280;44470;53.206;-6.106;2023-02-18T09:26:07;101842.69;;;18.83;60.47
58690;BME280;44470;53.206;-6.106;2023-02-18T09:28:34;101849.81;;;18.84;60.63
58690;BME280;44470;53.206;-6.106;2023-02-18T09:31:08;101832.94;;;18.86;60.92
58690;BME280;44470;53.206;-6.106;2023-02-18T09:33:40;101848.03;;;18.89;62.05
58690;BME280;44470;53.206;-6.106;2023-02-18T09:36:06;101847.16;;;18.90;62.09
58690;BME280;44470;53.206;-6.106;2023-02-18T09:38:32;101856.94;;;18.90;62.28
58690;BME280;44470;53.206;-6.106;2023-02-18T09:40:59;101853.38;;;18.89;62.20
58690;BME280;44470;53.206;-6.106;2023-02-18T09:43:29;101852.50;;;18.88;62.16
58690;BME280;44470;53.206;-6.106;2023-02-18T09:45:59;101839.13;;;18.87;62.12
58690;BME280;44470;53.206;-6.106;2023-02-18T09:48:33;101836.50;;;18.88;62.21
58690;BME280;44470;53.206;-6.106;2023-02-18T09:51:01;101844.50;;;18.88;61.66
58690;BME280;44470;53.206;-6.106;2023-02-18T09:53:27;101851.59;;;18.88;62.07
58690;BME280;44470;53.206;-6.106;2023-02-18T09:55:55;101853.34;;;18.83;61.65
58690;BME280;44470;53.206;-6.106;2023-02-18T09:58:29;101862.25;;;18.88;62.10
58690;BME280;44470;53.206;-6.106;2023-02-18T10:01:06;101863.16;;;18.88;62.17
58690;BME280;44470;53.206;-6.106;2023-02-18T10:03:36;101864.03;;;18.89;61.96
58690;BME280;44470;53.206;-6.106;2023-02-18T10:06:05;101860.47;;;18.90;62.07
58690;BME280;44470;53.206;-6.106;2023-02-18T10:08:38;101859.59;;;18.90;61.99
58690;BME280;44470;53.206;-6.106;2023-02-18T10:11:13;101855.16;;;18.90;62.05
58690;BME280;44470;53.206;-6.106;2023-02-18T10:13:42;101856.06;;;18.91;62.28
58690;BME280;44470;53.206;-6.106;2023-02-18T10:16:08;101861.38;;;18.91;62.27
58690;BME280;44470;53.206;-6.106;2023-02-18T10:18:42;101855.16;;;18.90;62.35
58690;BME280;44470;53.206;-6.106;2023-02-18T10:21:13;101865.81;;;18.90;62.35
58690;BME280;44470;53.206;-6.106;2023-02-18T10:23:45;101875.59;;;18.91;62.22
58690;BME280;44470;53.206;-6.106;2023-02-18T10:26:15;101869.38;;;18.92;62.25
58690;BME280;44470;53.206;-6.106;2023-02-18T10:28:41;101853.34;;;18.86;62.28
58690;BME280;44470;53.206;-6.106;2023-02-18T10:31:09;101859.63;;;18.93;62.40
58690;BME280;44470;53.206;-6.106;2023-02-18T10:33:52;101869.38;;;18.92;62.50
58690;BME280;44470;53.206;-6.106;2023-02-18T10:41:31;101877.38;;;18.92;62.55
58690;BME280;44470;53.206;-6.106;2023-02-18T10:49:49;101842.69;;;18.92;62.36
58690;BME280;44470;53.206;-6.106;2023-02-18T10:52:17;101832.94;;;18.90;62.29
58690;BME280;44470;53.206;-6.106;2023-02-18T10:55:11;101847.16;;;18.93;62.48
58690;BME280;44470;53.206;-6.106;2023-02-18T10:57:51;101830.25;;;18.94;62.53
58690;BME280;44470;53.206;-6.106;2023-02-18T11:00:18;101824.94;;;18.93;62.74
58690;BME280;44470;53.206;-6.106;2023-02-18T11:02:45;101831.16;;;18.92;62.64
58690;BME280;44470;53.206;-6.106;2023-02-18T11:05:24;101842.69;;;18.92;62.30
58690;BME280;44470;53.206;-6.106;2023-02-18T11:07:52;101835.59;;;18.88;62.64
58690;BME280;44470;53.206;-6.106;2023-02-18T11:10:32;101832.91;;;18.94;62.33
58690;BME280;44470;53.206;-6.106;2023-02-18T11:13:02;101846.25;;;18.94;62.32
58690;BME280;44470;53.206;-6.106;2023-02-18T11:15:28;101839.13;;;18.90;62.40
58690;BME280;44470;53.206;-6.106;2023-02-18T11:17:57;101846.25;;;18.94;62.06
58690;BME280;44470;53.206;-6.106;2023-02-18T11:20:36;101848.03;;;18.95;62.32
58690;BME280;44470;53.206;-6.106;2023-02-18T11:25:33;101839.16;;;18.93;62.48
58690;BME280;44470;53.206;-6.106;2023-02-18T11:28:27;101839.16;;;18.96;62.55
58690;BME280;44470;53.206;-6.106;2023-02-18T11:30:59;101849.84;;;18.95;62.22
58690;BME280;44470;53.206;-6.106;2023-02-18T11:33:40;101824.94;;;18.96;62.54
58690;BME280;44470;53.206;-6.106;2023-02-18T11:38:52;101832.03;;;18.95;62.72
58690;BME280;44470;53.206;-6.106;2023-02-18T11:41:31;101832.97;;;18.97;62.36
58690;BME280;44470;53.206;-6.106;2023-02-18T11:43:58;101832.03;;;18.95;62.51
58690;BME280;44470;53.206;-6.106;2023-02-18T11:46:25;101841.81;;;18.96;62.45
58690;BME280;44470;53.206;-6.106;2023-02-18T11:48:52;101834.75;;;18.98;62.59
58690;BME280;44470;53.206;-6.106;2023-02-18T11:56:25;101837.41;;;18.98;62.42
58690;BME280;44470;53.206;-6.106;2023-02-18T11:58:51;101844.53;;;18.99;62.60
58690;BME280;44470;53.206;-6.106;2023-02-18T12:01:44;101841.84;;;18.99;62.34
58690;BME280;44470;53.206;-6.106;2023-02-18T12:04:20;101846.31;;;19.00;62.57
58690;BME280;44470;53.206;-6.106;2023-02-18T12:07:18;101839.19;;;19.01;62.18
58690;BME280;44470;53.206;-6.106;2023-02-18T12:09:54;101832.94;;;18.96;62.33
58690;BME280;44470;53.206;-6.106;2023-02-18T12:15:52;101840.97;;;18.97;62.53
58690;BME280;44470;53.206;-6.106;2023-02-18T12:39:47;101844.53;;;19.02;62.34
58690;BME280;44470;53.206;-6.106;2023-02-18T12:47:48;101839.19;;;19.06;62.26
58690;BME280;44470;53.206;-6.106;2023-02-18T13:03:34;101827.66;;;19.08;63.09
58690;BME280;44470;53.206;-6.106;2023-02-18T13:06:41;101827.63;;;19.07;62.65
58690;BME280;44470;53.206;-6.106;2023-02-18T13:12:40;101808.94;;;19.03;62.49
58690;BME280;44470;53.206;-6.106;2023-02-18T13:18:00;101797.38;;;18.98;62.43
58690;BME280;44470;53.206;-6.106;2023-02-18T13:20:45;101806.28;;;19.07;62.22
58690;BME280;44470;53.206;-6.106;2023-02-18T13:23:22;101813.41;;;19.08;62.43
58690;BME280;44470;53.206;-6.106;2023-02-18T13:25:51;101802.75;;;19.03;62.41
58690;BME280;44470;53.206;-6.106;2023-02-18T13:29:07;101810.72;;;19.08;62.63
58690;BME280;44470;53.206;-6.106;2023-02-18T13:34:31;101795.63;;;19.05;62.25
58690;BME280;44470;53.206;-6.106;2023-02-18T13:37:08;101805.41;;;19.08;62.51
58690;BME280;44470;53.206;-6.106;2023-02-18T13:39:37;101805.41;;;19.05;62.48
58690;BME280;44470;53.206;-6.106;2023-02-18T13:47:42;101807.16;;;19.09;62.38
58690;BME280;44470;53.206;-6.106;2023-02-18T13:52:59;101800.06;;;19.08;62.41
58690;BME280;44470;53.206;-6.106;2023-02-18T14:01:04;101800.06;;;19.08;62.04
58690;BME280;44470;53.206;-6.106;2023-02-18T14:08:43;101808.94;;;19.07;62.39
58690;BME280;44470;53.206;-6.106;2023-02-18T14:16:19;101802.75;;;19.06;62.43
58690;BME280;44470;53.206;-6.106;2023-02-18T14:26:08;101752.91;;;19.07;62.30
58690;BME280;44470;53.206;-6.106;2023-02-18T14:33:54;101766.28;;;19.10;62.19
58690;BME280;44470;53.206;-6.106;2023-02-18T14:36:39;101743.13;;;19.09;62.34
58690;BME280;44470;53.206;-6.106;2023-02-18T14:39:38;101727.13;;;19.09;62.40
58690;BME280;44470;53.206;-6.106;2023-02-18T14:50:37;101719.13;;;19.09;62.29
58690;BME280;44470;53.206;-6.106;2023-02-18T14:53:11;101703.13;;;19.10;62.18
58690;BME280;44470;53.206;-6.106;2023-02-18T14:55:49;101710.25;;;19.11;62.32
58690;BME280;44470;53.206;-6.106;2023-02-18T14:58:36;101734.25;;;19.11;62.38
58690;BME280;44470;53.206;-6.106;2023-02-18T15:01:21;101733.38;;;19.11;62.10
58690;BME280;44470;53.206;-6.106;2023-02-18T15:03:50;101735.16;;;19.12;62.15
58690;BME280;44470;53.206;-6.106;2023-02-18T15:08:49;101739.59;;;19.13;62.21
58690;BME280;44470;53.206;-6.106;2023-02-18T15:11:24;101746.72;;;19.14;62.44
58690;BME280;44470;53.206;-6.106;2023-02-18T15:13:51;101740.50;;;19.12;62.50
58690;BME280;44470;53.206;-6.106;2023-02-18T15:16:35;101755.63;;;19.16;62.34
58690;BME280;44470;53.206;-6.106;2023-02-18T15:19:03;101753.84;;;19.15;62.43
58690;BME280;44470;53.206;-6.106;2023-02-18T15:21:49;101754.72;;;19.11;62.09
58690;BME280;44470;53.206;-6.106;2023-02-18T15:24:35;101759.16;;;19.16;62.44
58690;BME280;44470;53.206;-6.106;2023-02-18T15:27:13;101758.25;;;19.14;62.58
58690;BME280;44470;53.206;-6.106;2023-02-18T15:29:40;101749.38;;;19.15;62.33